LFRT

Saint-Brieuc-Armor Airport

Airport
ICAO code
LFRT
IATA Code
SBK
Summary
ICAO Region
EUR
ICAO Territory
Location

, Bretagne

Serving
St.-brieuc Armor
Elevation
453 ft
Coordinates
48° 32' 16" N , 2° 51' 16" W
Metar
LFRT 301600Z AUTO 33017KT 9999 BKN027 BKN048 OVC058 15/09 Q1016

Runways

Designator Length Width Surface Rops
6/24 2200 45 ASP No/No

Airport map

Aerial View

SKYbrary Partners:

Safety knowledge contributed by: